sensor_id;sensor_type;location;lat;lon;timestamp;P1;durP1;ratioP1;P2;durP2;ratioP2
51270;SDS011;37744;50.960;4.136;2022-10-20T00:01:15;19.48;;;11.57;;
51270;SDS011;37744;50.960;4.136;2022-10-20T00:03:44;21.10;;;11.73;;
51270;SDS011;37744;50.960;4.136;2022-10-20T00:08:44;22.25;;;11.45;;
51270;SDS011;37744;50.960;4.136;2022-10-20T00:11:11;16.80;;;10.88;;
51270;SDS011;37744;50.960;4.136;2022-10-20T00:13:42;19.50;;;11.32;;
51270;SDS011;37744;50.960;4.136;2022-10-20T00:16:09;17.80;;;11.23;;
51270;SDS011;37744;50.960;4.136;2022-10-20T00:18:42;24.00;;;12.40;;
51270;SDS011;37744;50.960;4.136;2022-10-20T00:21:10;22.10;;;12.10;;
51270;SDS011;37744;50.960;4.136;2022-10-20T00:23:40;24.25;;;12.23;;
51270;SDS011;37744;50.960;4.136;2022-10-20T00:26:17;20.10;;;11.60;;
51270;SDS011;37744;50.960;4.136;2022-10-20T00:28:45;21.27;;;11.98;;
51270;SDS011;37744;50.960;4.136;2022-10-20T00:33:41;21.55;;;12.95;;
51270;SDS011;37744;50.960;4.136;2022-10-20T00:36:08;21.92;;;13.25;;
51270;SDS011;37744;50.960;4.136;2022-10-20T00:38:42;22.30;;;13.35;;
51270;SDS011;37744;50.960;4.136;2022-10-20T00:41:08;25.10;;;14.13;;
51270;SDS011;37744;50.960;4.136;2022-10-20T00:46:18;23.27;;;12.60;;
51270;SDS011;37744;50.960;4.136;2022-10-20T00:48:52;22.73;;;12.98;;
51270;SDS011;37744;50.960;4.136;2022-10-20T00:51:25;27.10;;;11.90;;
51270;SDS011;37744;50.960;4.136;2022-10-20T00:54:02;18.83;;;12.02;;
51270;SDS011;37744;50.960;4.136;2022-10-20T00:56:35;23.25;;;12.75;;
51270;SDS011;37744;50.960;4.136;2022-10-20T00:59:09;21.73;;;12.45;;
51270;SDS011;37744;50.960;4.136;2022-10-20T01:01:39;25.45;;;13.15;;
51270;SDS011;37744;50.960;4.136;2022-10-20T01:04:12;23.00;;;13.07;;
51270;SDS011;37744;50.960;4.136;2022-10-20T01:06:42;20.55;;;12.85;;
51270;SDS011;37744;50.960;4.136;2022-10-20T01:09:09;23.23;;;12.85;;
51270;SDS011;37744;50.960;4.136;2022-10-20T01:17:15;23.10;;;12.60;;
51270;SDS011;37744;50.960;4.136;2022-10-20T01:22:34;21.92;;;13.25;;
51270;SDS011;37744;50.960;4.136;2022-10-20T01:31:00;29.30;;;14.88;;
51270;SDS011;37744;50.960;4.136;2022-10-20T01:41:33;23.65;;;14.55;;
51270;SDS011;37744;50.960;4.136;2022-10-20T01:44:11;25.77;;;13.77;;
51270;SDS011;37744;50.960;4.136;2022-10-20T01:46:46;23.67;;;14.50;;
51270;SDS011;37744;50.960;4.136;2022-10-20T01:49:13;25.27;;;14.95;;
51270;SDS011;37744;50.960;4.136;2022-10-20T01:51:41;25.35;;;15.02;;
51270;SDS011;37744;50.960;4.136;2022-10-20T01:54:24;24.10;;;14.93;;
51270;SDS011;37744;50.960;4.136;2022-10-20T02:07:38;25.02;;;15.52;;
51270;SDS011;37744;50.960;4.136;2022-10-20T02:12:52;28.20;;;15.45;;
51270;SDS011;37744;50.960;4.136;2022-10-20T02:17:59;26.58;;;15.35;;
51270;SDS011;37744;50.960;4.136;2022-10-20T02:20:33;30.38;;;15.35;;
51270;SDS011;37744;50.960;4.136;2022-10-20T02:23:00;28.20;;;14.82;;
51270;SDS011;37744;50.960;4.136;2022-10-20T02:25:28;22.77;;;14.93;;
51270;SDS011;37744;50.960;4.136;2022-10-20T02:28:00;26.67;;;15.25;;
51270;SDS011;37744;50.960;4.136;2022-10-20T02:30:29;25.83;;;15.23;;
51270;SDS011;37744;50.960;4.136;2022-10-20T02:32:56;25.02;;;15.27;;
51270;SDS011;37744;50.960;4.136;2022-10-20T02:35:25;25.95;;;15.25;;
51270;SDS011;37744;50.960;4.136;2022-10-20T02:37:56;25.70;;;15.27;;
51270;SDS011;37744;50.960;4.136;2022-10-20T02:40:25;27.02;;;15.57;;
51270;SDS011;37744;50.960;4.136;2022-10-20T02:42:51;24.30;;;14.27;;
51270;SDS011;37744;50.960;4.136;2022-10-20T02:47:48;25.48;;;15.07;;
51270;SDS011;37744;50.960;4.136;2022-10-20T02:50:14;25.80;;;14.73;;
51270;SDS011;37744;50.960;4.136;2022-10-20T02:52:41;26.52;;;15.18;;
51270;SDS011;37744;50.960;4.136;2022-10-20T02:55:08;27.20;;;14.15;;
51270;SDS011;37744;50.960;4.136;2022-10-20T02:57:34;26.67;;;14.68;;
51270;SDS011;37744;50.960;4.136;2022-10-20T03:00:00;21.45;;;13.23;;
51270;SDS011;37744;50.960;4.136;2022-10-20T03:02:25;20.48;;;13.40;;
51270;SDS011;37744;50.960;4.136;2022-10-20T03:04:51;22.40;;;13.35;;
51270;SDS011;37744;50.960;4.136;2022-10-20T03:07:19;22.30;;;13.27;;
51270;SDS011;37744;50.960;4.136;2022-10-20T03:12:15;21.85;;;12.50;;
51270;SDS011;37744;50.960;4.136;2022-10-20T03:17:12;22.10;;;12.73;;
51270;SDS011;37744;50.960;4.136;2022-10-20T03:22:07;18.10;;;11.60;;
51270;SDS011;37744;50.960;4.136;2022-10-20T03:27:04;20.63;;;13.10;;
51270;SDS011;37744;50.960;4.136;2022-10-20T03:29:29;24.80;;;13.73;;
51270;SDS011;37744;50.960;4.136;2022-10-20T03:31:57;18.38;;;12.02;;
51270;SDS011;37744;50.960;4.136;2022-10-20T03:34:22;18.85;;;11.98;;
51270;SDS011;37744;50.960;4.136;2022-10-20T03:36:49;18.77;;;12.18;;
51270;SDS011;37744;50.960;4.136;2022-10-20T03:39:14;20.65;;;11.98;;
51270;SDS011;37744;50.960;4.136;2022-10-20T03:41:40;22.00;;;12.40;;
51270;SDS011;37744;50.960;4.136;2022-10-20T03:44:05;18.67;;;11.15;;
51270;SDS011;37744;50.960;4.136;2022-10-20T03:46:37;16.33;;;11.15;;
51270;SDS011;37744;50.960;4.136;2022-10-20T03:49:02;18.08;;;11.32;;
51270;SDS011;37744;50.960;4.136;2022-10-20T03:51:28;16.52;;;10.48;;
51270;SDS011;37744;50.960;4.136;2022-10-20T03:53:53;22.17;;;12.13;;
51270;SDS011;37744;50.960;4.136;2022-10-20T03:58:47;15.80;;;10.70;;
51270;SDS011;37744;50.960;4.136;2022-10-20T04:01:15;18.40;;;11.40;;
51270;SDS011;37744;50.960;4.136;2022-10-20T04:03:45;19.13;;;11.43;;
51270;SDS011;37744;50.960;4.136;2022-10-20T04:06:12;20.67;;;12.15;;
51270;SDS011;37744;50.960;4.136;2022-10-20T04:08:41;19.30;;;11.32;;
51270;SDS011;37744;50.960;4.136;2022-10-20T04:13:35;21.40;;;12.63;;
51270;SDS011;37744;50.960;4.136;2022-10-20T04:16:03;23.58;;;12.43;;
51270;SDS011;37744;50.960;4.136;2022-10-20T04:18:29;19.45;;;12.48;;
51270;SDS011;37744;50.960;4.136;2022-10-20T04:20:57;19.02;;;12.52;;
51270;SDS011;37744;50.960;4.136;2022-10-20T04:23:28;17.13;;;11.77;;
51270;SDS011;37744;50.960;4.136;2022-10-20T04:25:54;20.75;;;13.05;;
51270;SDS011;37744;50.960;4.136;2022-10-20T04:28:22;21.25;;;12.38;;
51270;SDS011;37744;50.960;4.136;2022-10-20T04:30:49;18.70;;;12.18;;
51270;SDS011;37744;50.960;4.136;2022-10-20T04:33:16;18.77;;;12.10;;
51270;SDS011;37744;50.960;4.136;2022-10-20T04:38:11;20.65;;;12.38;;
51270;SDS011;37744;50.960;4.136;2022-10-20T04:43:05;21.15;;;12.73;;
51270;SDS011;37744;50.960;4.136;2022-10-20T04:45:33;19.35;;;12.55;;
51270;SDS011;37744;50.960;4.136;2022-10-20T04:47:59;20.98;;;13.07;;
51270;SDS011;37744;50.960;4.136;2022-10-20T04:50:31;18.30;;;11.88;;
51270;SDS011;37744;50.960;4.136;2022-10-20T04:53:00;19.70;;;12.40;;
51270;SDS011;37744;50.960;4.136;2022-10-20T04:55:27;19.02;;;13.00;;
51270;SDS011;37744;50.960;4.136;2022-10-20T04:57:56;19.13;;;11.27;;
51270;SDS011;37744;50.960;4.136;2022-10-20T05:00:27;20.83;;;12.98;;
51270;SDS011;37744;50.960;4.136;2022-10-20T05:02:59;21.73;;;12.48;;
51270;SDS011;37744;50.960;4.136;2022-10-20T05:05:32;21.05;;;11.80;;
51270;SDS011;37744;50.960;4.136;2022-10-20T05:08:03;18.07;;;11.67;;
51270;SDS011;37744;50.960;4.136;2022-10-20T05:10:32;18.70;;;12.40;;
51270;SDS011;37744;50.960;4.136;2022-10-20T05:12:58;21.83;;;12.18;;
51270;SDS011;37744;50.960;4.136;2022-10-20T05:15:27;18.35;;;11.75;;
51270;SDS011;37744;50.960;4.136;2022-10-20T05:20:28;18.13;;;11.32;;
51270;SDS011;37744;50.960;4.136;2022-10-20T05:22:54;20.48;;;11.70;;
51270;SDS011;37744;50.960;4.136;2022-10-20T05:25:23;19.58;;;12.00;;
51270;SDS011;37744;50.960;4.136;2022-10-20T05:27:51;18.63;;;12.05;;
51270;SDS011;37744;50.960;4.136;2022-10-20T05:30:17;19.90;;;11.98;;
51270;SDS011;37744;50.960;4.136;2022-10-20T05:32:48;20.90;;;12.27;;
51270;SDS011;37744;50.960;4.136;2022-10-20T05:35:14;19.95;;;11.20;;
51270;SDS011;37744;50.960;4.136;2022-10-20T05:37:41;22.27;;;12.27;;
51270;SDS011;37744;50.960;4.136;2022-10-20T05:40:07;19.45;;;12.40;;
51270;SDS011;37744;50.960;4.136;2022-10-20T05:42:35;18.55;;;12.15;;
51270;SDS011;37744;50.960;4.136;2022-10-20T05:45:04;19.95;;;12.00;;
51270;SDS011;37744;50.960;4.136;2022-10-20T05:47:32;18.05;;;11.88;;
51270;SDS011;37744;50.960;4.136;2022-10-20T05:50:00;17.67;;;12.13;;
51270;SDS011;37744;50.960;4.136;2022-10-20T05:52:33;19.02;;;12.07;;
51270;SDS011;37744;50.960;4.136;2022-10-20T05:54:59;23.02;;;12.48;;
51270;SDS011;37744;50.960;4.136;2022-10-20T05:57:25;19.10;;;12.05;;
51270;SDS011;37744;50.960;4.136;2022-10-20T05:59:52;19.10;;;12.27;;
51270;SDS011;37744;50.960;4.136;2022-10-20T06:02:17;20.80;;;12.77;;
51270;SDS011;37744;50.960;4.136;2022-10-20T06:04:44;18.80;;;12.18;;
51270;SDS011;37744;50.960;4.136;2022-10-20T06:07:09;21.00;;;12.32;;
51270;SDS011;37744;50.960;4.136;2022-10-20T06:09:38;19.55;;;11.45;;
51270;SDS011;37744;50.960;4.136;2022-10-20T06:12:06;20.23;;;12.35;;
51270;SDS011;37744;50.960;4.136;2022-10-20T06:14:32;20.83;;;11.77;;
51270;SDS011;37744;50.960;4.136;2022-10-20T06:17:03;19.30;;;11.38;;
51270;SDS011;37744;50.960;4.136;2022-10-20T06:19:32;21.58;;;12.15;;
51270;SDS011;37744;50.960;4.136;2022-10-20T06:22:00;20.92;;;12.32;;
51270;SDS011;37744;50.960;4.136;2022-10-20T06:24:28;23.95;;;13.20;;
51270;SDS011;37744;50.960;4.136;2022-10-20T06:26:55;22.10;;;12.48;;
51270;SDS011;37744;50.960;4.136;2022-10-20T06:29:22;21.80;;;12.00;;
51270;SDS011;37744;50.960;4.136;2022-10-20T06:31:48;23.23;;;11.23;;
51270;SDS011;37744;50.960;4.136;2022-10-20T06:34:17;21.10;;;11.52;;
51270;SDS011;37744;50.960;4.136;2022-10-20T06:36:47;20.42;;;11.70;;
51270;SDS011;37744;50.960;4.136;2022-10-20T06:39:17;18.85;;;11.57;;
51270;SDS011;37744;50.960;4.136;2022-10-20T06:41:50;19.65;;;11.60;;
51270;SDS011;37744;50.960;4.136;2022-10-20T06:44:18;24.48;;;13.75;;
51270;SDS011;37744;50.960;4.136;2022-10-20T06:46:45;28.67;;;18.05;;
51270;SDS011;37744;50.960;4.136;2022-10-20T06:49:12;37.65;;;21.60;;
51270;SDS011;37744;50.960;4.136;2022-10-20T06:51:38;26.23;;;15.63;;
51270;SDS011;37744;50.960;4.136;2022-10-20T06:54:06;18.15;;;12.57;;
51270;SDS011;37744;50.960;4.136;2022-10-20T06:56:34;17.08;;;10.55;;
51270;SDS011;37744;50.960;4.136;2022-10-20T06:59:02;20.58;;;11.25;;
51270;SDS011;37744;50.960;4.136;2022-10-20T07:01:29;17.50;;;10.50;;
51270;SDS011;37744;50.960;4.136;2022-10-20T07:04:00;17.67;;;10.35;;
51270;SDS011;37744;50.960;4.136;2022-10-20T07:06:30;16.33;;;10.25;;
51270;SDS011;37744;50.960;4.136;2022-10-20T07:09:00;17.73;;;10.90;;
51270;SDS011;37744;50.960;4.136;2022-10-20T07:11:30;17.58;;;10.27;;
51270;SDS011;37744;50.960;4.136;2022-10-20T07:13:59;15.70;;;10.18;;
51270;SDS011;37744;50.960;4.136;2022-10-20T07:16:28;15.30;;;9.50;;
51270;SDS011;37744;50.960;4.136;2022-10-20T07:21:25;16.38;;;10.38;;
51270;SDS011;37744;50.960;4.136;2022-10-20T07:23:54;18.35;;;9.90;;
51270;SDS011;37744;50.960;4.136;2022-10-20T07:26:23;14.85;;;9.80;;
51270;SDS011;37744;50.960;4.136;2022-10-20T07:33:52;19.70;;;10.50;;
51270;SDS011;37744;50.960;4.136;2022-10-20T07:36:25;16.85;;;9.88;;
51270;SDS011;37744;50.960;4.136;2022-10-20T07:38:56;14.32;;;9.85;;
51270;SDS011;37744;50.960;4.136;2022-10-20T07:41:26;18.00;;;10.32;;
51270;SDS011;37744;50.960;4.136;2022-10-20T07:43:52;19.15;;;12.65;;
51270;SDS011;37744;50.960;4.136;2022-10-20T07:46:19;15.20;;;10.40;;
51270;SDS011;37744;50.960;4.136;2022-10-20T07:48:48;18.45;;;10.38;;
51270;SDS011;37744;50.960;4.136;2022-10-20T07:51:16;16.52;;;10.23;;
51270;SDS011;37744;50.960;4.136;2022-10-20T07:53:51;15.75;;;9.93;;
51270;SDS011;37744;50.960;4.136;2022-10-20T07:56:21;17.75;;;10.25;;
51270;SDS011;37744;50.960;4.136;2022-10-20T07:58:48;20.30;;;12.15;;
51270;SDS011;37744;50.960;4.136;2022-10-20T08:01:16;18.35;;;11.18;;
51270;SDS011;37744;50.960;4.136;2022-10-20T08:03:42;20.83;;;11.70;;
51270;SDS011;37744;50.960;4.136;2022-10-20T08:06:08;16.20;;;10.48;;
51270;SDS011;37744;50.960;4.136;2022-10-20T08:08:33;16.58;;;10.20;;
51270;SDS011;37744;50.960;4.136;2022-10-20T08:10:59;17.08;;;10.93;;
51270;SDS011;37744;50.960;4.136;2022-10-20T08:13:27;15.20;;;9.63;;
51270;SDS011;37744;50.960;4.136;2022-10-20T08:15:56;16.77;;;9.70;;
51270;SDS011;37744;50.960;4.136;2022-10-20T08:18:24;15.48;;;10.23;;
51270;SDS011;37744;50.960;4.136;2022-10-20T08:20:52;15.10;;;9.48;;
51270;SDS011;37744;50.960;4.136;2022-10-20T08:23:21;22.05;;;10.70;;
51270;SDS011;37744;50.960;4.136;2022-10-20T08:25:54;20.63;;;10.57;;
51270;SDS011;37744;50.960;4.136;2022-10-20T08:28:23;12.73;;;9.23;;
51270;SDS011;37744;50.960;4.136;2022-10-20T08:33:18;18.92;;;11.00;;
51270;SDS011;37744;50.960;4.136;2022-10-20T08:38:15;20.58;;;11.45;;
51270;SDS011;37744;50.960;4.136;2022-10-20T08:40:42;17.25;;;10.38;;
51270;SDS011;37744;50.960;4.136;2022-10-20T08:43:17;17.83;;;11.13;;
51270;SDS011;37744;50.960;4.136;2022-10-20T08:45:44;18.70;;;11.00;;
51270;SDS011;37744;50.960;4.136;2022-10-20T08:48:15;19.60;;;10.52;;
51270;SDS011;37744;50.960;4.136;2022-10-20T08:51:02;18.88;;;10.48;;
51270;SDS011;37744;50.960;4.136;2022-10-20T08:53:36;18.83;;;11.60;;
51270;SDS011;37744;50.960;4.136;2022-10-20T08:56:11;18.92;;;11.07;;
51270;SDS011;37744;50.960;4.136;2022-10-20T09:01:13;16.52;;;11.82;;
51270;SDS011;37744;50.960;4.136;2022-10-20T09:03:56;22.77;;;12.20;;
51270;SDS011;37744;50.960;4.136;2022-10-20T09:06:32;22.80;;;12.07;;
51270;SDS011;37744;50.960;4.136;2022-10-20T09:09:02;20.80;;;12.40;;
51270;SDS011;37744;50.960;4.136;2022-10-20T09:11:29;20.77;;;12.52;;
51270;SDS011;37744;50.960;4.136;2022-10-20T09:14:01;21.08;;;12.13;;
51270;SDS011;37744;50.960;4.136;2022-10-20T09:16:31;19.60;;;11.52;;
51270;SDS011;37744;50.960;4.136;2022-10-20T09:19:03;20.00;;;12.60;;
51270;SDS011;37744;50.960;4.136;2022-10-20T09:21:32;24.50;;;12.70;;
51270;SDS011;37744;50.960;4.136;2022-10-20T09:24:02;22.60;;;12.85;;
51270;SDS011;37744;50.960;4.136;2022-10-20T09:26:35;19.35;;;12.10;;
51270;SDS011;37744;50.960;4.136;2022-10-20T09:29:14;22.50;;;14.27;;
51270;SDS011;37744;50.960;4.136;2022-10-20T09:31:48;20.85;;;12.57;;
51270;SDS011;37744;50.960;4.136;2022-10-20T09:34:31;24.67;;;13.50;;
51270;SDS011;37744;50.960;4.136;2022-10-20T09:42:18;20.25;;;13.23;;
51270;SDS011;37744;50.960;4.136;2022-10-20T09:44:52;22.75;;;12.75;;
51270;SDS011;37744;50.960;4.136;2022-10-20T09:47:26;22.85;;;12.63;;
51270;SDS011;37744;50.960;4.136;2022-10-20T09:49:56;27.00;;;11.65;;
51270;SDS011;37744;50.960;4.136;2022-10-20T09:52:29;21.83;;;12.40;;
51270;SDS011;37744;50.960;4.136;2022-10-20T09:58:06;23.13;;;11.88;;
51270;SDS011;37744;50.960;4.136;2022-10-20T10:01:03;21.92;;;12.43;;
51270;SDS011;37744;50.960;4.136;2022-10-20T10:06:38;26.58;;;11.77;;
51270;SDS011;37744;50.960;4.136;2022-10-20T10:12:15;20.63;;;11.63;;
51270;SDS011;37744;50.960;4.136;2022-10-20T10:14:56;20.95;;;11.35;;
51270;SDS011;37744;50.960;4.136;2022-10-20T10:17:33;22.02;;;12.25;;
51270;SDS011;37744;50.960;4.136;2022-10-20T10:20:02;22.35;;;11.30;;
51270;SDS011;37744;50.960;4.136;2022-10-20T10:22:52;20.90;;;13.07;;
51270;SDS011;37744;50.960;4.136;2022-10-20T10:25:34;28.63;;;14.55;;
51270;SDS011;37744;50.960;4.136;2022-10-20T10:28:35;21.85;;;12.57;;
51270;SDS011;37744;50.960;4.136;2022-10-20T10:31:19;21.92;;;11.98;;
51270;SDS011;37744;50.960;4.136;2022-10-20T10:33:48;22.30;;;12.25;;
51270;SDS011;37744;50.960;4.136;2022-10-20T10:36:29;20.08;;;10.75;;
51270;SDS011;37744;50.960;4.136;2022-10-20T10:38:58;19.40;;;11.63;;
51270;SDS011;37744;50.960;4.136;2022-10-20T10:41:59;19.80;;;11.40;;
51270;SDS011;37744;50.960;4.136;2022-10-20T10:55:47;19.50;;;11.18;;
51270;SDS011;37744;50.960;4.136;2022-10-20T11:07:00;19.30;;;9.95;;
51270;SDS011;37744;50.960;4.136;2022-10-20T11:12:54;17.48;;;9.75;;
51270;SDS011;37744;50.960;4.136;2022-10-20T11:18:40;14.70;;;8.07;;
51270;SDS011;37744;50.960;4.136;2022-10-20T11:29:50;14.30;;;6.60;;
51270;SDS011;37744;50.960;4.136;2022-10-20T11:37:37;14.50;;;6.50;;
51270;SDS011;37744;50.960;4.136;2022-10-20T11:48:55;14.75;;;6.13;;
51270;SDS011;37744;50.960;4.136;2022-10-20T11:54:04;11.35;;;5.82;;
51270;SDS011;37744;50.960;4.136;2022-10-20T12:10:24;10.65;;;4.53;;
51270;SDS011;37744;50.960;4.136;2022-10-20T12:18:30;9.20;;;4.20;;
51270;SDS011;37744;50.960;4.136;2022-10-20T12:29:44;8.82;;;4.28;;
51270;SDS011;37744;50.960;4.136;2022-10-20T12:35:25;7.73;;;3.80;;
51270;SDS011;37744;50.960;4.136;2022-10-20T12:37:59;4.88;;;3.50;;
51270;SDS011;37744;50.960;4.136;2022-10-20T12:43:31;7.10;;;3.53;;
51270;SDS011;37744;50.960;4.136;2022-10-20T12:46:17;8.60;;;3.38;;
51270;SDS011;37744;50.960;4.136;2022-10-20T12:48:46;6.82;;;3.03;;
51270;SDS011;37744;50.960;4.136;2022-10-20T12:51:22;6.10;;;3.38;;
51270;SDS011;37744;50.960;4.136;2022-10-20T12:53:55;4.93;;;3.05;;
51270;SDS011;37744;50.960;4.136;2022-10-20T12:56:27;6.05;;;3.30;;
51270;SDS011;37744;50.960;4.136;2022-10-20T13:04:54;9.55;;;4.72;;
51270;SDS011;37744;50.960;4.136;2022-10-20T13:20:38;4.05;;;2.30;;
51270;SDS011;37744;50.960;4.136;2022-10-20T13:23:12;8.77;;;3.00;;
51270;SDS011;37744;50.960;4.136;2022-10-20T13:25:45;4.45;;;2.58;;
51270;SDS011;37744;50.960;4.136;2022-10-20T13:36:34;5.40;;;2.38;;
51270;SDS011;37744;50.960;4.136;2022-10-20T13:50:38;3.67;;;1.67;;
51270;SDS011;37744;50.960;4.136;2022-10-20T13:55:29;7.68;;;2.10;;
51270;SDS011;37744;50.960;4.136;2022-10-20T13:58:16;11.80;;;2.13;;
51270;SDS011;37744;50.960;4.136;2022-10-20T14:01:33;3.95;;;2.13;;
51270;SDS011;37744;50.960;4.136;2022-10-20T14:03:49;4.10;;;1.95;;
51270;SDS011;37744;50.960;4.136;2022-10-20T14:06:35;5.38;;;1.90;;
51270;SDS011;37744;50.960;4.136;2022-10-20T14:09:15;3.38;;;2.05;;
51270;SDS011;37744;50.960;4.136;2022-10-20T14:14:24;5.20;;;2.00;;
51270;SDS011;37744;50.960;4.136;2022-10-20T14:17:04;4.22;;;1.52;;
51270;SDS011;37744;50.960;4.136;2022-10-20T14:19:32;5.72;;;2.10;;
51270;SDS011;37744;50.960;4.136;2022-10-20T14:22:08;4.30;;;1.88;;
51270;SDS011;37744;50.960;4.136;2022-10-20T14:24:42;4.05;;;1.90;;
51270;SDS011;37744;50.960;4.136;2022-10-20T14:27:30;6.25;;;2.97;;
51270;SDS011;37744;50.960;4.136;2022-10-20T14:29:59;4.22;;;2.45;;
51270;SDS011;37744;50.960;4.136;2022-10-20T14:32:37;3.53;;;2.80;;
51270;SDS011;37744;50.960;4.136;2022-10-20T14:37:50;5.85;;;1.98;;
51270;SDS011;37744;50.960;4.136;2022-10-20T14:42:50;3.22;;;2.40;;
51270;SDS011;37744;50.960;4.136;2022-10-20T14:45:17;4.32;;;2.47;;
51270;SDS011;37744;50.960;4.136;2022-10-20T14:47:47;5.28;;;3.00;;
51270;SDS011;37744;50.960;4.136;2022-10-20T14:50:35;8.73;;;2.67;;
51270;SDS011;37744;50.960;4.136;2022-10-20T14:53:24;4.65;;;2.03;;
51270;SDS011;37744;50.960;4.136;2022-10-20T14:56:00;5.15;;;2.53;;
51270;SDS011;37744;50.960;4.136;2022-10-20T15:01:16;5.28;;;2.70;;
51270;SDS011;37744;50.960;4.136;2022-10-20T15:03:43;4.35;;;2.72;;
51270;SDS011;37744;50.960;4.136;2022-10-20T15:06:13;4.40;;;2.92;;
51270;SDS011;37744;50.960;4.136;2022-10-20T15:08:50;4.07;;;2.47;;
51270;SDS011;37744;50.960;4.136;2022-10-20T15:11:24;4.95;;;2.42;;
51270;SDS011;37744;50.960;4.136;2022-10-20T15:13:58;4.95;;;2.60;;
51270;SDS011;37744;50.960;4.136;2022-10-20T15:16:32;3.55;;;3.20;;
51270;SDS011;37744;50.960;4.136;2022-10-20T15:21:51;4.10;;;2.47;;
51270;SDS011;37744;50.960;4.136;2022-10-20T15:24:24;9.77;;;3.45;;
51270;SDS011;37744;50.960;4.136;2022-10-20T15:26:50;6.30;;;3.00;;
51270;SDS011;37744;50.960;4.136;2022-10-20T15:29:22;6.57;;;3.00;;
51270;SDS011;37744;50.960;4.136;2022-10-20T15:31:52;5.55;;;2.60;;
51270;SDS011;37744;50.960;4.136;2022-10-20T15:34:19;6.72;;;3.17;;
51270;SDS011;37744;50.960;4.136;2022-10-20T15:39:13;7.57;;;2.58;;
51270;SDS011;37744;50.960;4.136;2022-10-20T15:41:41;4.35;;;2.10;;
51270;SDS011;37744;50.960;4.136;2022-10-20T15:44:11;3.97;;;2.45;;
51270;SDS011;37744;50.960;4.136;2022-10-20T15:46:41;4.25;;;2.47;;
51270;SDS011;37744;50.960;4.136;2022-10-20T15:49:08;4.57;;;2.83;;
51270;SDS011;37744;50.960;4.136;2022-10-20T15:51:35;5.75;;;2.60;;
51270;SDS011;37744;50.960;4.136;2022-10-20T15:54:04;5.07;;;2.55;;
51270;SDS011;37744;50.960;4.136;2022-10-20T15:56:30;4.43;;;2.28;;
51270;SDS011;37744;50.960;4.136;2022-10-20T16:01:25;5.30;;;2.10;;
51270;SDS011;37744;50.960;4.136;2022-10-20T16:03:53;5.03;;;2.60;;
51270;SDS011;37744;50.960;4.136;2022-10-20T16:06:20;5.03;;;3.65;;
51270;SDS011;37744;50.960;4.136;2022-10-20T16:08:46;7.50;;;3.80;;
51270;SDS011;37744;50.960;4.136;2022-10-20T16:11:14;10.07;;;4.05;;
51270;SDS011;37744;50.960;4.136;2022-10-20T16:13:41;6.30;;;3.90;;
51270;SDS011;37744;50.960;4.136;2022-10-20T16:16:13;9.07;;;4.15;;
51270;SDS011;37744;50.960;4.136;2022-10-20T16:18:41;5.65;;;3.20;;
51270;SDS011;37744;50.960;4.136;2022-10-20T16:21:07;4.78;;;2.85;;
51270;SDS011;37744;50.960;4.136;2022-10-20T16:23:38;5.28;;;2.45;;
51270;SDS011;37744;50.960;4.136;2022-10-20T16:26:06;3.90;;;2.85;;
51270;SDS011;37744;50.960;4.136;2022-10-20T16:28:35;6.55;;;3.20;;
51270;SDS011;37744;50.960;4.136;2022-10-20T16:31:06;5.55;;;4.13;;
51270;SDS011;37744;50.960;4.136;2022-10-20T16:33:35;10.03;;;5.07;;
51270;SDS011;37744;50.960;4.136;2022-10-20T16:36:05;7.65;;;4.85;;
51270;SDS011;37744;50.960;4.136;2022-10-20T16:38:33;8.13;;;4.97;;
51270;SDS011;37744;50.960;4.136;2022-10-20T16:41:01;10.30;;;4.80;;
51270;SDS011;37744;50.960;4.136;2022-10-20T16:43:35;9.20;;;4.60;;
51270;SDS011;37744;50.960;4.136;2022-10-20T16:46:10;6.18;;;3.50;;
51270;SDS011;37744;50.960;4.136;2022-10-20T16:48:39;6.20;;;3.28;;
51270;SDS011;37744;50.960;4.136;2022-10-20T16:51:07;5.47;;;3.03;;
51270;SDS011;37744;50.960;4.136;2022-10-20T16:53:35;6.53;;;2.83;;
51270;SDS011;37744;50.960;4.136;2022-10-20T16:56:01;5.13;;;2.90;;
51270;SDS011;37744;50.960;4.136;2022-10-20T16:58:26;7.47;;;2.88;;
51270;SDS011;37744;50.960;4.136;2022-10-20T17:00:57;6.25;;;3.70;;
51270;SDS011;37744;50.960;4.136;2022-10-20T17:03:26;6.38;;;3.80;;
51270;SDS011;37744;50.960;4.136;2022-10-20T17:06:00;5.45;;;3.40;;
51270;SDS011;37744;50.960;4.136;2022-10-20T17:08:27;11.57;;;8.75;;
51270;SDS011;37744;50.960;4.136;2022-10-20T17:10:55;10.38;;;7.43;;
51270;SDS011;37744;50.960;4.136;2022-10-20T17:13:26;10.77;;;7.30;;
51270;SDS011;37744;50.960;4.136;2022-10-20T17:15:53;14.07;;;7.72;;
51270;SDS011;37744;50.960;4.136;2022-10-20T17:18:19;10.35;;;7.68;;
51270;SDS011;37744;50.960;4.136;2022-10-20T17:20:50;9.25;;;6.07;;
51270;SDS011;37744;50.960;4.136;2022-10-20T17:23:17;9.27;;;5.68;;
51270;SDS011;37744;50.960;4.136;2022-10-20T17:25:45;8.57;;;5.18;;
51270;SDS011;37744;50.960;4.136;2022-10-20T17:28:11;6.57;;;4.30;;
51270;SDS011;37744;50.960;4.136;2022-10-20T17:30:44;5.63;;;4.53;;
51270;SDS011;37744;50.960;4.136;2022-10-20T17:33:12;8.70;;;3.67;;
51270;SDS011;37744;50.960;4.136;2022-10-20T17:35:38;6.55;;;3.38;;
51270;SDS011;37744;50.960;4.136;2022-10-20T17:38:03;5.60;;;2.55;;
51270;SDS011;37744;50.960;4.136;2022-10-20T17:40:35;7.75;;;2.78;;
51270;SDS011;37744;50.960;4.136;2022-10-20T17:43:04;7.05;;;3.13;;
51270;SDS011;37744;50.960;4.136;2022-10-20T17:45:30;8.57;;;2.40;;
51270;SDS011;37744;50.960;4.136;2022-10-20T17:47:56;5.35;;;1.88;;
51270;SDS011;37744;50.960;4.136;2022-10-20T17:50:22;5.53;;;2.28;;
51270;SDS011;37744;50.960;4.136;2022-10-20T17:52:49;5.85;;;2.55;;
51270;SDS011;37744;50.960;4.136;2022-10-20T17:55:14;5.70;;;2.38;;
51270;SDS011;37744;50.960;4.136;2022-10-20T17:57:41;4.60;;;2.28;;
51270;SDS011;37744;50.960;4.136;2022-10-20T18:00:06;5.88;;;2.53;;
51270;SDS011;37744;50.960;4.136;2022-10-20T18:02:32;4.78;;;2.45;;
51270;SDS011;37744;50.960;4.136;2022-10-20T18:04:58;8.85;;;2.38;;
51270;SDS011;37744;50.960;4.136;2022-10-20T18:07:29;5.25;;;2.80;;
51270;SDS011;37744;50.960;4.136;2022-10-20T18:09:55;5.22;;;2.95;;
51270;SDS011;37744;50.960;4.136;2022-10-20T18:12:21;8.63;;;2.97;;
51270;SDS011;37744;50.960;4.136;2022-10-20T18:14:48;5.53;;;2.55;;
51270;SDS011;37744;50.960;4.136;2022-10-20T18:17:14;5.50;;;2.45;;
51270;SDS011;37744;50.960;4.136;2022-10-20T18:19:39;10.20;;;2.55;;
51270;SDS011;37744;50.960;4.136;2022-10-20T18:22:05;6.88;;;3.15;;
51270;SDS011;37744;50.960;4.136;2022-10-20T18:24:31;4.60;;;2.75;;
51270;SDS011;37744;50.960;4.136;2022-10-20T18:26:58;6.97;;;2.70;;
51270;SDS011;37744;50.960;4.136;2022-10-20T18:29:24;4.85;;;2.45;;
51270;SDS011;37744;50.960;4.136;2022-10-20T18:31:50;5.82;;;2.40;;
51270;SDS011;37744;50.960;4.136;2022-10-20T18:34:21;5.65;;;2.42;;
51270;SDS011;37744;50.960;4.136;2022-10-20T18:36:52;7.07;;;3.25;;
51270;SDS011;37744;50.960;4.136;2022-10-20T18:39:19;7.18;;;2.83;;
51270;SDS011;37744;50.960;4.136;2022-10-20T18:41:49;9.40;;;3.08;;
51270;SDS011;37744;50.960;4.136;2022-10-20T18:44:16;5.47;;;2.80;;
51270;SDS011;37744;50.960;4.136;2022-10-20T18:46:49;4.80;;;3.13;;
51270;SDS011;37744;50.960;4.136;2022-10-20T18:49:16;13.83;;;3.30;;
51270;SDS011;37744;50.960;4.136;2022-10-20T18:51:46;4.63;;;3.35;;
51270;SDS011;37744;50.960;4.136;2022-10-20T18:54:12;6.00;;;3.40;;